• Join FlightAware (Why Join?)
  • Login
  • US Flag 
08:47AM EST


 

Airport Tracker/Info


-or-


 

Live Flight TrackerFlight Track Log ✈ AWE3794 ✈ 12-Aug-2014 ✈ KBDL - KPHL

Flight Track Log - Related Links

Times and Time Zones

All times are in EDT time to prevent confusion due to time zone crossing. See the AWE3794 flight status page for this flight to view local times or setup timezone preferences in your user account.

Time Position Orientation Groundspeed Altitude Reporting Facility
EDT Latitude Longitude Course Direction KTS MPH feet Rate Location/Type
04:34PM 41.8831 -72.6367 150° Southeast 184 212 2,600  Level Boston Center
04:34PM 41.8675 -72.6303 163° South 186 214 3,200 1,920 Climbing Boston Center
04:35PM 41.8031 -72.6061 164° South 232 267 5,200 2,340 Climbing Boston Center
04:36PM 41.7283 -72.5781 164° South 253 291 8,000 2,460 Climbing Boston Center
04:37PM 41.6631 -72.5342 153° Southeast 270 311 10,300 2,100 Climbing Boston Center
04:38PM 41.5961 -72.4858 152° Southeast 282 325 12,400 1,800 Climbing Boston Center
04:39PM 41.5086 -72.4936 184° South 289 333 14,100 1,560 Climbing Boston Center
04:40PM 41.4222 -72.5003 183° South 311 358 15,700 1,380 Climbing Boston Center
04:41PM 41.3339 -72.5083 184° South 317 365 17,000 1,020 Climbing Boston Center
04:42PM 41.2494 -72.5686 208° Southwest 335 386 17,900 900 Climbing Boston Center
04:43PM 41.1647 -72.6300 209° Southwest 347 399 18,900 960 Climbing Boston Center
04:44PM 41.0772 -72.6931 209° Southwest 352 405 19,900 480 Climbing Boston Center
04:45PM 40.9861 -72.7589 209° Southwest 364 419 20,000  Climbing Boston Center
04:46PM 40.8881 -72.8294 209° Southwest 395 455 20,000  Level Boston Center
04:47PM 40.7878 -72.9022 209° Southwest 404 465 20,000  Level Boston Center
04:48PM 40.6739 -72.9853 209° Southwest 416 479 20,000  Level Boston Center
04:49PM 40.5706 -73.0600 209° Southwest 420 483 20,000  Level Boston Center
04:50PM 40.4675 -73.1350 209° Southwest 421 484 20,000  Level Boston Center
04:51PM 40.3656 -73.2086 209° Southwest 420 483 20,000  Level Boston Center
04:53PM 40.2647 -73.2803 208° Southwest 417 480 20,000  Level Boston Center
04:54PM 40.1503 -73.3644 209° Southwest 404 465 20,000  Level Boston Center
04:55PM 40.0581 -73.4294 208° Southwest 382 440 20,000  Level Boston Center
04:56PM 39.9694 -73.4950 210° Southwest 369 425 20,000 -600 Level Boston Center
04:57PM 39.8806 -73.5728 214° Southwest 370 426 18,800 -1,200 Descending Boston Center
04:58PM 39.8181 -73.6744 231° Southwest 366 421 17,600 -1,440 Descending Boston Center
04:58PM 39.7703 -73.7503 231° Southwest 356 410 16,300 -1,200 Descending Washington Center
04:59PM 39.7192 -73.8272 229° Southwest 356 410 15,500 -960 Descending Washington Center
05:00PM 39.6542 -73.9314 231° Southwest 356 410 14,500 -840 Descending Washington Center
05:01PM 39.5950 -74.0242 230° Southwest 351 404 13,900 -300 Descending Washington Center
05:02PM 39.5356 -74.1169 230° Southwest 351 404 13,900  Level Washington Center
05:03PM 39.4825 -74.2069 233° Southwest 339 390 13,900 -120 Level Washington Center
05:04PM 39.4753 -74.3092 265° West 293 337 13,700 -660 Descending Washington Center
05:05PM 39.4869 -74.4164 278° West 294 338 12,700 -1,020 Descending Washington Center
05:06PM 39.4961 -74.5186 277° West 288 331 11,700 -1,080 Descending Washington Center
05:09PM 39.5167 -74.7500 277° West 279 321 9,300 -1,080 Descending Philadelphia TRACON
05:10PM 39.5333 -74.8500 282° West 276 318 8,400 -1,020 Descending Philadelphia TRACON
05:11PM 39.5333 -74.9500 270° West 275 316 7,300 -1,020 Descending Philadelphia TRACON
05:12PM 39.5500 -75.0500 282° West 276 318 6,400 -660 Descending Philadelphia TRACON
05:13PM 39.5500 -75.1500 270° West 287 330 6,000 -240 Descending Philadelphia TRACON
05:14PM 39.5667 -75.2500 282° West 291 335 6,000  Level Philadelphia TRACON
05:15PM 39.6000 -75.3167 303° West 240 276 6,000  Level Philadelphia TRACON
05:16PM 39.6667 -75.3500 339° North 219 252 6,000 -540 Level Philadelphia TRACON
05:17PM 39.7167 -75.3667 346° North 226 260 5,000 -840 Descending Philadelphia TRACON
05:18PM 39.7167 -75.4333 270° West 200 230 4,400 -540 Descending Philadelphia TRACON
05:19PM 39.7167 -75.5167 270° West 197 227 4,000 -240 Descending Philadelphia TRACON
05:20PM 39.7000 -75.5833 252° West 196 226 4,000  Level Philadelphia TRACON
05:21PM 39.7000 -75.6500 270° West 243 280 4,000  Level Philadelphia TRACON
05:22PM 39.7500 -75.6500 360° North 206 237 4,000 -480 Level Philadelphia TRACON
05:23PM 39.8000 -75.6167 27° Northeast 209 241 3,100 -540 Descending Philadelphia TRACON
05:24PM 39.8167 -75.5500 72° East 168 193 3,000 -60 Descending Philadelphia TRACON
05:25PM 39.8167 -75.4833 90° East 171 197 3,000 -300 Level Philadelphia TRACON
05:26PM 39.8333 -75.4333 67° East 162 186 2,500 -660 Descending Philadelphia TRACON
05:27PM 39.8333 -75.3833 90° East 154 177 1,700 -780 Descending Philadelphia TRACON
05:28PM 39.8500 -75.3333 67° East 120 138 1,000 -720 Descending Philadelphia TRACON
05:29PM 39.8667 -75.2833 67° East 128 147 300 -720 Descending Philadelphia TRACON